Time;durP1;ratioP1;P1;durP2;ratioP2;P2;SDS_P1;SDS_P2;PMS_P1;PMS_P2;Temp;Humidity;BMP_temperature;BMP_pressure;BME280_temperature;BME280_humidity;BME280_pressure;Samples;Min_cycle;Max_cycle;Signal;HPM_P1;HPM_P2
2023/05/23 00:02:14;;;;;;;13.20;12.10;;;;;;;13.24;100.00;96499.69;5017047;28;20408;-68
2023/05/23 00:04:43;;;;;;;14.93;13.70;;;;;;;13.24;100.00;96505.00;5018899;28;20219;-69
2023/05/23 00:07:11;;;;;;;14.07;12.80;;;;;;;13.05;100.00;96480.19;5000027;28;20208;-68
2023/05/23 00:09:38;;;;;;;15.80;14.53;;;;;;;13.21;100.00;96499.28;5003430;28;20452;-69
2023/05/23 00:12:06;;;;;;;14.10;13.07;;;;;;;13.23;100.00;96497.22;5024046;28;20231;-67
2023/05/23 00:14:34;;;;;;;15.63;14.33;;;;;;;13.23;100.00;96495.41;5006344;28;20329;-69
2023/05/23 00:17:02;;;;;;;14.57;13.47;;;;;;;13.25;100.00;96505.81;5023796;28;20212;-67
2023/05/23 00:19:35;;;;;;;14.23;13.03;;;;;;;13.18;100.00;96496.03;5004388;28;20207;-66
2023/05/23 00:22:03;;;;;;;15.07;13.77;;;;;;;13.07;100.00;96503.91;5024710;28;20921;-67
2023/05/23 00:24:30;;;;;;;14.30;13.13;;;;;;;13.07;100.00;96507.41;4970679;28;20538;-68
2023/05/23 00:26:58;;;;;;;14.43;13.30;;;;;;;13.14;100.00;96507.34;5029822;28;20204;-68
2023/05/23 00:29:25;;;;;;;13.97;12.90;;;;;;;13.11;100.00;96507.78;5001418;28;20219;-68
2023/05/23 00:31:53;;;;;;;14.00;12.93;;;;;;;13.03;100.00;96504.34;5023994;28;20270;-67
2023/05/23 00:34:21;;;;;;;13.47;12.53;;;;;;;12.99;100.00;96507.66;5007473;28;20213;-68
2023/05/23 00:36:50;;;;;;;13.30;12.20;;;;;;;12.95;100.00;96517.91;5024785;28;20216;-68
2023/05/23 00:39:18;;;;;;;13.47;12.47;;;;;;;12.86;100.00;96500.59;4980960;28;20203;-68
2023/05/23 00:41:48;;;;;;;15.03;13.83;;;;;;;12.95;100.00;96520.56;5024896;28;21040;-70
2023/05/23 00:44:20;;;;;;;15.10;14.00;;;;;;;12.90;100.00;96520.41;5009147;28;20202;-67
2023/05/23 00:46:51;;;;;;;15.33;14.03;;;;;;;12.81;100.00;96519.84;5025057;28;20393;-69
2023/05/23 00:49:19;;;;;;;14.20;12.90;;;;;;;12.79;100.00;96524.56;5006537;28;20725;-68
2023/05/23 00:51:48;;;;;;;16.13;14.80;;;;;;;12.79;100.00;96523.75;5023375;28;20276;-68
2023/05/23 00:54:18;;;;;;;16.20;15.00;;;;;;;12.61;100.00;96504.00;5021922;28;20604;-68
2023/05/23 00:56:47;;;;;;;15.73;14.60;;;;;;;12.73;100.00;96520.09;4972530;28;20207;-67
2023/05/23 00:59:15;;;;;;;14.87;13.67;;;;;;;12.64;100.00;96522.19;5008567;28;20807;-68
2023/05/23 01:01:45;;;;;;;13.70;12.70;;;;;;;12.73;100.00;96525.41;5020362;28;22326;-69
2023/05/23 01:04:15;;;;;;;14.90;13.50;;;;;;;12.65;100.00;96531.00;5026053;28;21276;-68
2023/05/23 01:06:45;;;;;;;14.77;13.67;;;;;;;12.61;100.00;96530.59;5002899;28;20218;-66
2023/05/23 01:09:14;;;;;;;15.53;14.33;;;;;;;12.53;100.00;96544.97;5024162;28;20863;-68
2023/05/23 01:11:48;;;;;;;14.63;13.43;;;;;;;12.54;100.00;96543.09;4971283;28;20227;-69
2023/05/23 01:14:20;;;;;;;14.50;13.40;;;;;;;12.57;100.00;96538.19;4998191;28;20691;-70
2023/05/23 01:16:52;;;;;;;15.00;13.70;;;;;;;12.59;100.00;96545.94;5015717;28;20534;-67
2023/05/23 01:19:40;;;;;;;14.73;13.50;;;;;;;12.54;100.00;96559.03;5024953;28;20397;-69
2023/05/23 01:22:12;;;;;;;15.10;13.80;;;;;;;12.51;100.00;96548.84;5000569;28;20315;-67
2023/05/23 01:24:48;;;;;;;14.37;13.17;;;;;;;12.42;100.00;96554.41;5024255;28;20760;-68
2023/05/23 01:27:23;;;;;;;13.97;12.90;;;;;;;12.42;100.00;96561.53;4974851;28;20218;-68
2023/05/23 01:29:56;;;;;;;14.73;13.40;;;;;;;12.37;100.00;96559.53;5005936;28;20237;-68
2023/05/23 01:32:25;;;;;;;14.27;13.17;;;;;;;12.44;100.00;96573.59;5028012;28;20888;-68
2023/05/23 01:34:53;;;;;;;14.67;13.57;;;;;;;12.40;100.00;96574.22;5030373;28;20199;-68
2023/05/23 01:37:21;;;;;;;15.20;14.00;;;;;;;12.29;100.00;96570.38;5007868;28;20207;-66
2023/05/23 01:39:48;;;;;;;15.37;14.10;;;;;;;12.30;100.00;96570.19;5026880;28;20203;-68
2023/05/23 01:42:16;;;;;;;15.33;14.00;;;;;;;12.32;100.00;96564.66;4978046;28;20426;-70
2023/05/23 01:44:45;;;;;;;15.87;14.40;;;;;;;12.35;100.00;96556.28;5027847;28;20484;-68
2023/05/23 01:47:15;;;;;;;14.63;13.40;;;;;;;12.31;100.00;96557.69;5006678;28;20752;-68
2023/05/23 01:49:43;;;;;;;14.93;13.77;;;;;;;12.34;100.00;96551.16;5024377;28;20223;-67
2023/05/23 01:52:12;;;;;;;15.23;13.97;;;;;;;12.29;100.00;96560.56;5009432;28;20337;-67
2023/05/23 01:54:41;;;;;;;15.50;13.97;;;;;;;12.27;100.00;96556.50;5029441;28;20233;-70
2023/05/23 01:57:09;;;;;;;15.00;13.77;;;;;;;12.14;100.00;96563.50;5033246;28;20213;-68
2023/05/23 01:59:37;;;;;;;15.67;14.27;;;;;;;12.19;100.00;96564.69;4977241;28;20214;-68
2023/05/23 02:02:06;;;;;;;14.23;13.20;;;;;;;12.13;100.00;96553.88;5011137;28;20244;-68
2023/05/23 02:04:35;;;;;;;15.73;14.53;;;;;;;12.09;100.00;96552.69;5030094;28;20207;-68
2023/05/23 02:07:02;;;;;;;15.23;14.00;;;;;;;12.15;100.00;96565.13;5012476;28;20286;-67
2023/05/23 02:09:30;;;;;;;15.93;14.73;;;;;;;12.14;100.00;96566.13;5028763;28;20241;-68
2023/05/23 02:11:58;;;;;;;15.57;14.33;;;;;;;12.07;100.00;96554.72;5028228;28;20227;-67
2023/05/23 02:14:27;;;;;;;15.70;14.50;;;;;;;12.15;100.00;96567.78;4977260;28;20220;-67
2023/05/23 02:16:54;;;;;;;16.13;14.83;;;;;;;12.30;100.00;96564.88;5031037;28;20649;-68
2023/05/23 02:19:22;;;;;;;15.63;14.07;;;;;;;12.35;100.00;96564.25;5010415;28;20206;-66
2023/05/23 02:21:51;;;;;;;14.87;13.67;;;;;;;12.43;100.00;96563.16;5027989;28;20286;-66
2023/05/23 02:24:19;;;;;;;15.60;14.40;;;;;;;12.50;100.00;96566.63;5007092;28;20747;-67
2023/05/23 02:26:47;;;;;;;14.60;13.50;;;;;;;12.65;100.00;96565.53;5025454;28;20284;-67
2023/05/23 02:29:15;;;;;;;14.50;13.40;;;;;;;12.75;100.00;96571.19;4974712;28;20680;-66
2023/05/23 02:31:42;;;;;;;16.03;14.80;;;;;;;12.81;100.00;96566.88;5026314;28;20223;-69
2023/05/23 02:34:10;;;;;;;16.20;15.00;;;;;;;12.92;100.00;96570.72;5012025;28;20620;-66
2023/05/23 02:36:38;;;;;;;14.63;13.30;;;;;;;13.01;100.00;96564.91;5027631;28;20298;-69
2023/05/23 02:39:07;;;;;;;14.50;13.40;;;;;;;13.06;100.00;96558.94;5004412;28;20978;-67
2023/05/23 02:41:35;;;;;;;15.83;14.53;;;;;;;13.15;100.00;96573.63;5027743;28;20226;-67
2023/05/23 02:44:03;;;;;;;16.33;15.13;;;;;;;13.17;100.00;96568.09;4976666;28;20538;-66
2023/05/23 02:46:31;;;;;;;15.97;14.67;;;;;;;13.15;100.00;96570.94;5028966;28;20203;-67
2023/05/23 02:48:58;;;;;;;15.37;14.17;;;;;;;13.10;100.00;96559.34;5018211;28;20230;-67
2023/05/23 02:51:26;;;;;;;15.23;13.93;;;;;;;13.09;100.00;96568.34;5006181;28;20319;-67
2023/05/23 02:53:53;;;;;;;15.30;14.10;;;;;;;13.01;100.00;96580.84;5005158;28;20330;-65
2023/05/23 02:56:22;;;;;;;15.30;14.10;;;;;;;12.96;100.00;96563.94;5028154;28;20397;-67
2023/05/23 02:58:51;;;;;;;16.00;14.53;;;;;;;13.03;100.00;96556.72;5024580;28;20356;-67
2023/05/23 03:01:19;;;;;;;15.93;14.63;;;;;;;13.08;100.00;96558.75;4980289;28;20638;-69
2023/05/23 03:03:46;;;;;;;15.63;14.03;;;;;;;13.20;100.00;96562.34;5026021;28;20694;-69
2023/05/23 03:06:15;;;;;;;15.13;13.93;;;;;;;13.15;100.00;96549.66;5010554;28;20602;-68
2023/05/23 03:08:43;;;;;;;17.30;15.83;;;;;;;13.05;100.00;96530.72;4998461;28;20212;-68
2023/05/23 03:11:11;;;;;;;16.13;14.83;;;;;;;13.18;100.00;96556.41;5007395;28;20233;-69
2023/05/23 03:13:40;;;;;;;15.47;14.27;;;;;;;13.24;100.00;96546.75;5027084;28;20214;-69
2023/05/23 03:16:07;;;;;;;16.17;14.90;;;;;;;13.29;100.00;96544.28;4967694;28;20218;-67
2023/05/23 03:18:35;;;;;;;15.20;14.07;;;;;;;13.30;100.00;96538.72;5029860;28;20768;-67
2023/05/23 03:21:03;;;;;;;16.77;15.13;;;;;;;13.48;100.00;96545.16;4991396;28;20260;-65
2023/05/23 03:23:31;;;;;;;15.57;14.27;;;;;;;13.52;100.00;96541.03;5016597;28;20270;-67
2023/05/23 03:25:59;;;;;;;15.03;13.93;;;;;;;13.44;100.00;96543.94;4996228;28;20411;-65
2023/05/23 03:28:27;;;;;;;15.17;14.00;;;;;;;13.45;100.00;96546.41;4996888;28;21363;-66
2023/05/23 03:30:56;;;;;;;15.53;14.23;;;;;;;13.54;100.00;96538.13;5019005;28;20632;-66
2023/05/23 03:33:24;;;;;;;14.93;13.77;;;;;;;13.57;100.00;96545.69;4998731;28;20719;-63
2023/05/23 03:35:52;;;;;;;15.43;14.23;;;;;;;13.60;100.00;96545.25;5009416;28;20202;-64
2023/05/23 03:38:20;;;;;;;15.30;14.10;;;;;;;13.54;100.00;96544.28;5021726;28;20265;-66
2023/05/23 03:40:48;;;;;;;13.93;12.93;;;;;;;13.64;100.00;96551.78;5027514;28;20651;-66
2023/05/23 03:43:16;;;;;;;15.00;13.70;;;;;;;13.70;100.00;96552.75;4991771;28;20533;-66
2023/05/23 03:45:43;;;;;;;14.67;13.47;;;;;;;13.74;100.00;96559.25;5026746;28;20203;-67
2023/05/23 03:48:13;;;;;;;13.77;12.70;;;;;;;13.78;100.00;96562.28;4976466;28;20621;-68
2023/05/23 03:50:40;;;;;;;15.37;14.10;;;;;;;13.82;100.00;96558.16;5027824;28;20205;-70
2023/05/23 03:53:08;;;;;;;14.27;13.07;;;;;;;13.85;100.00;96563.88;5000228;28;20631;-68
2023/05/23 03:55:36;;;;;;;15.53;14.03;;;;;;;13.90;100.00;96560.53;5025434;28;20204;-69
2023/05/23 03:58:04;;;;;;;13.70;12.60;;;;;;;13.96;100.00;96561.50;4992013;28;20226;-67
2023/05/23 04:00:32;;;;;;;14.83;13.43;;;;;;;14.00;100.00;96563.47;5031805;28;20719;-67
2023/05/23 04:02:59;;;;;;;14.43;13.20;;;;;;;13.92;100.00;96537.16;4981324;28;20374;-70
2023/05/23 04:05:29;;;;;;;16.50;14.90;;;;;;;14.13;100.00;96559.06;5026457;28;20567;-69
2023/05/23 04:07:59;;;;;;;15.40;14.03;;;;;;;14.21;100.00;96566.75;5004695;28;20218;-67
2023/05/23 04:10:27;;;;;;;15.93;14.73;;;;;;;14.22;100.00;96557.72;5028852;28;20218;-67
2023/05/23 04:12:55;;;;;;;17.27;15.77;;;;;;;14.23;100.00;96563.88;5007736;28;20607;-67
2023/05/23 04:15:23;;;;;;;15.57;14.37;;;;;;;14.23;100.00;96572.69;5011925;28;20233;-66
2023/05/23 04:17:51;;;;;;;15.80;14.50;;;;;;;14.30;100.00;96575.28;5028419;28;20304;-68
2023/05/23 04:20:19;;;;;;;16.30;14.67;;;;;;;14.29;100.00;96584.31;4987284;28;20239;-67
2023/05/23 04:22:48;;;;;;;15.43;14.03;;;;;;;14.36;100.00;96579.72;5006237;28;20222;-67
2023/05/23 04:25:17;;;;;;;15.67;14.40;;;;;;;14.57;100.00;96583.75;5025984;28;20278;-68
2023/05/23 04:27:46;;;;;;;14.40;13.30;;;;;;;14.54;100.00;96583.38;4979700;28;20208;-68
2023/05/23 04:30:16;;;;;;;14.93;13.73;;;;;;;14.47;100.00;96586.16;5013164;28;20218;-66
2023/05/23 04:32:44;;;;;;;15.03;13.73;;;;;;;14.44;100.00;96581.28;5023077;28;20272;-66
2023/05/23 04:35:12;;;;;;;14.73;13.50;;;;;;;14.54;100.00;96591.38;4983721;28;20850;-68
2023/05/23 04:37:41;;;;;;;13.97;12.87;;;;;;;14.53;100.00;96589.75;5003154;28;20203;-68
2023/05/23 04:40:12;;;;;;;14.50;13.27;;;;;;;14.58;100.00;96593.38;5028390;28;20551;-65
2023/05/23 04:42:41;;;;;;;13.97;12.87;;;;;;;14.70;100.00;96601.47;5002861;28;20219;-69
2023/05/23 04:45:10;;;;;;;15.03;13.97;;;;;;;14.76;100.00;96591.75;5012212;28;20533;-68
2023/05/23 04:47:37;;;;;;;14.53;13.30;;;;;;;14.86;100.00;96600.03;5028844;28;20217;-68
2023/05/23 04:50:06;;;;;;;13.87;12.77;;;;;;;14.93;100.00;96605.28;4979661;28;20316;-67
2023/05/23 04:52:34;;;;;;;14.13;12.93;;;;;;;15.04;100.00;96595.69;5022863;28;20411;-69
2023/05/23 04:55:01;;;;;;;15.20;14.00;;;;;;;15.16;100.00;96595.72;5003938;28;20749;-67
2023/05/23 04:57:31;;;;;;;14.20;13.10;;;;;;;15.45;100.00;96601.25;5009908;28;20250;-67
2023/05/23 04:59:59;;;;;;;12.63;11.73;;;;;;;15.53;100.00;96594.75;5024407;28;20440;-67
2023/05/23 05:02:27;;;;;;;14.20;13.20;;;;;;;15.68;100.00;96594.31;5011108;28;20286;-67
2023/05/23 05:04:55;;;;;;;14.47;13.13;;;;;;;15.69;100.00;96598.59;5025123;28;20776;-66
2023/05/23 05:07:22;;;;;;;14.07;12.87;;;;;;;15.58;100.00;96594.91;4976701;28;20214;-66
2023/05/23 05:09:50;;;;;;;15.07;13.77;;;;;;;15.46;100.00;96593.00;4979450;28;20330;-64
2023/05/23 05:12:17;;;;;;;14.53;13.23;;;;;;;15.49;100.00;96592.53;5030659;28;20391;-64
2023/05/23 05:14:46;;;;;;;12.50;11.60;;;;;;;15.71;100.00;96593.84;5004539;28;20213;-66
2023/05/23 05:17:14;;;;;;;13.10;12.10;;;;;;;15.93;100.00;96596.81;5007070;28;20525;-67
2023/05/23 05:19:41;;;;;;;13.80;12.77;;;;;;;16.14;100.00;96607.94;5021613;28;20320;-68
2023/05/23 05:22:09;;;;;;;14.13;12.70;;;;;;;16.40;100.00;96605.81;4977615;28;20229;-67
2023/05/23 05:24:39;;;;;;;13.90;12.87;;;;;;;16.45;100.00;96608.59;5022477;28;20713;-67
2023/05/23 05:27:08;;;;;;;13.27;12.17;;;;;;;16.45;100.00;96603.25;5007996;28;20632;-67
2023/05/23 05:29:36;;;;;;;14.03;12.63;;;;;;;16.39;100.00;96607.66;4977061;28;20207;-67
2023/05/23 05:32:07;;;;;;;13.23;12.13;;;;;;;16.30;100.00;96601.88;5007957;28;20326;-67
2023/05/23 05:34:36;;;;;;;15.07;13.80;;;;;;;16.42;100.00;96612.53;5022120;28;20250;-66
2023/05/23 05:37:04;;;;;;;13.47;12.47;;;;;;;16.48;100.00;96618.81;4973181;28;20215;-67
2023/05/23 05:39:32;;;;;;;13.53;12.23;;;;;;;16.54;100.00;96590.31;5024589;28;20515;-68
2023/05/23 05:42:02;;;;;;;13.40;12.37;;;;;;;16.90;100.00;96610.53;4998498;28;20554;-67
2023/05/23 05:44:30;;;;;;;13.93;12.63;;;;;;;17.14;100.00;96620.38;5002777;28;20218;-67
2023/05/23 05:46:57;;;;;;;14.33;13.23;;;;;;;17.00;100.00;96623.34;5023673;28;20211;-66
2023/05/23 05:49:27;;;;;;;14.10;13.00;;;;;;;16.76;100.00;96620.72;5011985;28;20329;-66
2023/05/23 05:51:54;;;;;;;13.90;12.80;;;;;;;16.84;100.00;96616.84;5023352;28;20431;-67
2023/05/23 05:54:22;;;;;;;13.30;12.40;;;;;;;17.12;100.00;96619.78;4970639;28;20674;-66
2023/05/23 05:56:50;;;;;;;12.20;11.20;;;;;;;17.32;100.00;96617.50;5024807;28;20671;-66
2023/05/23 05:59:17;;;;;;;12.73;11.80;;;;;;;17.48;100.00;96607.03;4984804;28;20217;-66
2023/05/23 06:01:45;;;;;;;12.90;12.00;;;;;;;17.53;100.00;96617.81;5024169;28;20992;-66
2023/05/23 06:04:13;;;;;;;11.63;10.83;;;;;;;17.56;100.00;96622.69;5011268;28;20265;-66
2023/05/23 06:06:42;;;;;;;12.07;11.17;;;;;;;17.57;100.00;96618.97;5028742;28;20253;-65
2023/05/23 06:09:10;;;;;;;11.33;10.43;;;;;;;17.56;100.00;96630.72;4976430;28;20560;-69
2023/05/23 06:11:39;;;;;;;12.13;11.20;;;;;;;17.60;100.00;96628.38;5003216;28;20778;-65
2023/05/23 06:14:08;;;;;;;11.53;10.63;;;;;;;17.49;100.00;96638.13;5010671;28;20622;-65
2023/05/23 06:16:36;;;;;;;11.97;10.87;;;;;;;17.59;100.00;96637.47;5027964;28;20200;-66
2023/05/23 06:19:04;;;;;;;12.87;11.63;;;;;;;17.72;100.00;96634.47;5013950;28;20415;-66
2023/05/23 06:21:31;;;;;;;11.83;10.90;;;;;;;17.78;100.00;96640.72;5029762;28;20220;-66
2023/05/23 06:24:00;;;;;;;12.13;11.00;;;;;;;18.08;100.00;96635.06;4977540;28;21017;-67
2023/05/23 06:26:28;;;;;;;11.03;10.10;;;;;;;18.32;100.00;96637.53;5028298;28;20655;-66
2023/05/23 06:28:56;;;;;;;10.80;10.03;;;;;;;18.77;100.00;96638.38;5007636;28;20902;-66
2023/05/23 06:31:23;;;;;;;11.33;10.53;;;;;;;19.26;100.00;96650.22;5001593;28;20246;-66
2023/05/23 06:33:51;;;;;;;11.03;10.13;;;;;;;19.47;100.00;96647.72;5024165;28;20230;-67
2023/05/23 06:36:18;;;;;;;11.00;10.20;;;;;;;19.63;100.00;96646.81;5013823;28;20207;-68
2023/05/23 06:38:47;;;;;;;12.63;11.67;;;;;;;19.75;100.00;96638.56;5027265;28;20597;-67
2023/05/23 06:41:16;;;;;;;11.50;10.40;;;;;;;19.70;100.00;96630.47;4979167;28;20235;-68
2023/05/23 06:43:43;;;;;;;11.03;10.23;;;;;;;19.90;100.00;96635.22;5028138;28;20449;-68
2023/05/23 06:46:11;;;;;;;11.10;10.37;;;;;;;19.56;100.00;96613.97;5012120;28;20352;-68
2023/05/23 06:48:39;;;;;;;10.67;9.87;;;;;;;19.71;100.00;96636.66;5029746;28;20203;-68
2023/05/23 06:51:06;;;;;;;10.50;9.77;;;;;;;19.79;100.00;96637.00;5010261;28;20330;-68
2023/05/23 06:53:34;;;;;;;10.37;9.50;;;;;;;20.22;100.00;96638.94;5024996;28;20253;-67
2023/05/23 06:56:02;;;;;;;11.50;10.60;;;;;;;20.22;100.00;96633.56;4976700;28;21597;-69
2023/05/23 06:58:31;;;;;;;10.17;9.37;;;;;;;20.15;100.00;96639.16;5024521;28;20789;-67
2023/05/23 07:00:58;;;;;;;10.77;9.87;;;;;;;20.12;100.00;96636.97;5008243;28;20700;-69
2023/05/23 07:03:26;;;;;;;10.20;9.40;;;;;;;20.15;100.00;96639.16;5027194;28;20206;-69
2023/05/23 07:05:54;;;;;;;10.93;8.77;;;;;;;20.18;100.00;96640.53;5031424;28;20346;-69
2023/05/23 07:08:21;;;;;;;10.87;10.07;;;;;;;20.50;100.00;96637.72;5014108;28;20307;-66
2023/05/23 07:10:49;;;;;;;9.73;9.00;;;;;;;20.01;100.00;96641.47;4977383;28;20792;-67
2023/05/23 07:13:16;;;;;;;9.60;8.80;;;;;;;19.75;100.00;96621.63;5002921;28;20800;-66
2023/05/23 07:15:45;;;;;;;10.40;9.63;;;;;;;20.23;100.00;96652.09;5027599;28;20288;-68
2023/05/23 07:18:13;;;;;;;10.50;9.60;;;;;;;20.34;100.00;96655.66;5007994;28;20203;-67
2023/05/23 07:20:41;;;;;;;10.37;9.67;;;;;;;20.36;100.00;96655.41;5027789;28;20203;-67
2023/05/23 07:23:09;;;;;;;9.93;9.13;;;;;;;20.16;100.00;96651.53;5016094;28;20820;-66
2023/05/23 07:25:39;;;;;;;10.03;9.30;;;;;;;20.04;100.00;96651.72;4997253;28;20644;-65
2023/05/23 07:28:13;;;;;;;9.80;9.03;;;;;;;20.30;100.00;96656.47;4959866;28;20671;-66
2023/05/23 07:30:41;;;;;;;9.53;8.83;;;;;;;20.37;100.00;96654.34;5012898;28;20601;-67
2023/05/23 07:33:10;;;;;;;9.70;8.90;;;;;;;20.61;100.00;96653.91;4986625;28;20232;-67
2023/05/23 07:35:38;;;;;;;9.60;8.80;;;;;;;20.77;100.00;96654.81;5004735;28;20866;-68
2023/05/23 07:38:06;;;;;;;10.47;9.67;;;;;;;20.90;100.00;96661.63;4990830;28;20795;-69
2023/05/23 07:40:33;;;;;;;9.47;8.87;;;;;;;21.01;100.00;96651.69;4979765;28;20215;-68
2023/05/23 07:43:01;;;;;;;10.17;9.13;;;;;;;20.85;100.00;96656.22;4959995;28;20239;-69
2023/05/23 07:45:29;;;;;;;9.97;8.53;;;;;;;20.91;100.00;96661.38;5007046;28;20437;-69
2023/05/23 07:47:56;;;;;;;9.63;9.00;;;;;;;21.09;100.00;96662.78;4984344;28;20670;-68
2023/05/23 07:50:26;;;;;;;9.27;8.67;;;;;;;20.94;100.00;96660.00;5008626;28;20344;-68
2023/05/23 07:52:54;;;;;;;9.70;9.00;;;;;;;20.65;100.00;96657.75;4991554;28;20317;-68
2023/05/23 07:55:23;;;;;;;10.70;9.80;;;;;;;20.25;100.00;96660.72;5006557;28;20528;-69
2023/05/23 07:57:51;;;;;;;10.13;9.23;;;;;;;20.13;100.00;96659.31;4954519;28;20257;-68
2023/05/23 08:00:19;;;;;;;10.47;9.57;;;;;;;19.75;100.00;96668.13;4986886;28;20731;-70
2023/05/23 08:02:47;;;;;;;9.70;8.90;;;;;;;19.69;100.00;96671.81;4983549;28;20427;-68
2023/05/23 08:05:14;;;;;;;9.87;9.03;;;;;;;19.94;100.00;96670.47;5009374;28;20354;-70
2023/05/23 08:07:44;;;;;;;9.87;9.07;;;;;;;19.70;100.00;96678.03;5026507;28;20207;-70
2023/05/23 08:10:11;;;;;;;11.13;10.03;;;;;;;20.33;100.00;96672.09;5007083;28;20538;-67
2023/05/23 08:12:39;;;;;;;9.60;8.90;;;;;;;20.22;100.00;96666.63;5022430;28;21162;-68
2023/05/23 08:15:08;;;;;;;10.07;9.37;;;;;;;20.16;100.00;96670.34;4968743;28;21136;-67
2023/05/23 08:17:36;;;;;;;10.90;10.07;;;;;;;19.81;100.00;96685.09;5020666;28;20243;-68
2023/05/23 08:20:04;;;;;;;11.00;10.20;;;;;;;20.17;100.00;96688.09;4994001;28;20422;-67
2023/05/23 08:22:32;;;;;;;10.87;9.97;;;;;;;20.18;100.00;96689.72;5019947;28;20490;-68
2023/05/23 08:25:02;;;;;;;10.37;9.43;;;;;;;20.24;100.00;96691.38;4999407;28;20290;-68
2023/05/23 08:27:30;;;;;;;11.20;10.20;;;;;;;20.22;100.00;96682.75;5022663;28;20281;-67
2023/05/23 08:29:58;;;;;;;11.47;10.33;;;;;;;19.99;100.00;96693.91;4971571;28;20207;-70
2023/05/23 08:32:26;;;;;;;10.87;9.90;;;;;;;19.77;100.00;96692.88;5023544;28;20220;-66
2023/05/23 08:34:53;;;;;;;10.07;9.30;;;;;;;20.38;100.00;96685.56;5004275;28;20709;-67
2023/05/23 08:37:21;;;;;;;11.50;10.50;;;;;;;20.53;100.00;96693.72;5026508;28;20570;-71
2023/05/23 08:39:49;;;;;;;10.77;10.07;;;;;;;20.64;100.00;96693.75;5010098;28;20544;-66
2023/05/23 08:42:18;;;;;;;11.07;10.27;;;;;;;20.97;100.00;96689.09;5016970;28;20224;-67
2023/05/23 08:44:45;;;;;;;10.57;9.77;;;;;;;20.82;100.00;96700.63;4974332;28;20213;-67
2023/05/23 08:47:16;;;;;;;10.53;9.73;;;;;;;20.46;100.00;96701.22;5026713;28;20996;-67
2023/05/23 08:49:44;;;;;;;10.17;9.40;;;;;;;20.35;100.00;96696.84;5005908;28;20464;-67
2023/05/23 08:52:12;;;;;;;10.10;9.30;;;;;;;20.31;100.00;96706.50;5022558;28;20333;-66
2023/05/23 08:54:49;;;;;;;9.87;9.17;;;;;;;20.86;100.00;96700.91;5009434;28;20479;-66
2023/05/23 08:57:18;;;;;;;10.30;9.60;;;;;;;20.95;100.00;96702.03;5024031;28;20358;-67
2023/05/23 08:59:46;;;;;;;10.67;9.77;;;;;;;20.76;100.00;96683.63;4949408;28;20373;-66
2023/05/23 09:02:14;;;;;;;10.77;9.87;;;;;;;21.35;100.00;96703.25;5023392;28;20306;-68
2023/05/23 09:04:42;;;;;;;10.30;9.33;;;;;;;21.47;100.00;96708.38;5006052;28;20371;-67
2023/05/23 09:07:11;;;;;;;10.00;9.10;;;;;;;21.25;100.00;96714.81;5010538;28;20232;-66
2023/05/23 09:09:39;;;;;;;9.87;9.17;;;;;;;21.50;100.00;96718.63;5029673;28;20626;-68
2023/05/23 09:12:06;;;;;;;10.30;9.50;;;;;;;21.10;100.00;96722.81;5026815;28;20905;-69
2023/05/23 09:14:36;;;;;;;9.67;8.80;;;;;;;20.85;100.00;96721.66;4977359;28;20868;-70
2023/05/23 09:17:03;;;;;;;10.27;9.50;;;;;;;20.89;100.00;96720.06;5027991;28;20253;-69
2023/05/23 09:19:32;;;;;;;8.50;7.80;;;;;;;21.25;100.00;96722.06;5004113;28;20692;-69
2023/05/23 09:22:02;;;;;;;9.10;8.30;;;;;;;21.38;100.00;96726.16;5013859;28;20231;-68
2023/05/23 09:24:34;;;;;;;9.70;8.90;;;;;;;21.79;100.00;96723.56;5023819;28;21240;-69
2023/05/23 09:27:02;;;;;;;8.83;8.03;;;;;;;21.80;100.00;96719.81;5029056;28;20783;-69
2023/05/23 09:29:30;;;;;;;8.67;7.87;;;;;;;21.88;100.00;96729.25;5024630;28;20422;-69
2023/05/23 09:32:10;;;;;;;8.43;7.77;;;;;;;21.37;100.00;96721.84;4975182;28;20230;-68
2023/05/23 09:34:40;;;;;;;8.90;8.00;;;;;;;21.13;100.00;96730.38;5006317;28;22209;-66
2023/05/23 09:37:08;;;;;;;7.90;7.20;;;;;;;20.95;100.00;96720.88;5009862;28;20317;-67
2023/05/23 09:39:37;;;;;;;8.10;7.60;;;;;;;20.99;100.00;96721.16;5029950;28;20485;-68
2023/05/23 09:42:06;;;;;;;8.03;7.43;;;;;;;21.19;100.00;96725.81;5024881;28;20238;-69
2023/05/23 09:44:41;;;;;;;7.90;7.30;;;;;;;21.49;100.00;96724.31;5029982;28;20651;-67
2023/05/23 09:47:10;;;;;;;8.83;8.03;;;;;;;21.91;100.00;96723.31;4976678;28;20250;-70
2023/05/23 09:49:39;;;;;;;8.57;7.97;;;;;;;21.73;100.00;96729.22;5031795;28;20252;-67
2023/05/23 09:52:06;;;;;;;8.97;8.10;;;;;;;21.60;100.00;96730.53;5009855;28;20235;-71
2023/05/23 09:54:34;;;;;;;8.20;7.47;;;;;;;21.04;100.00;96729.25;5012237;28;20321;-68
2023/05/23 09:57:03;;;;;;;9.60;8.60;;;;;;;21.07;100.00;96726.03;5034074;28;20287;-66
2023/05/23 09:59:34;;;;;;;9.70;8.77;;;;;;;21.32;100.00;96728.00;5026270;28;20215;-68
2023/05/23 10:02:03;;;;;;;10.33;9.53;;;;;;;21.43;100.00;96726.16;4985092;28;20237;-68
2023/05/23 10:04:34;;;;;;;9.20;8.50;;;;;;;21.58;100.00;96709.22;5032890;28;20300;-69
2023/05/23 10:07:05;;;;;;;9.37;8.60;;;;;;;21.70;100.00;96733.28;5014187;28;20333;-68
2023/05/23 10:09:36;;;;;;;10.00;9.23;;;;;;;21.48;100.00;96736.16;5011015;28;20239;-68
2023/05/23 10:12:40;;;;;;;9.30;8.50;;;;;;;21.55;100.00;96729.44;5030755;28;20816;-70
2023/05/23 10:15:09;;;;;;;8.90;8.30;;;;;;;22.00;99.83;96738.97;5034311;28;20233;-68
2023/05/23 10:17:46;;;;;;;8.53;7.67;;;;;;;22.02;100.00;96734.09;4977036;28;21499;-67
2023/05/23 10:20:16;;;;;;;8.87;8.13;;;;;;;21.75;100.00;96743.25;5030007;28;20636;-68
2023/05/23 10:22:44;;;;;;;9.00;8.30;;;;;;;21.85;100.00;96728.97;5011077;28;20577;-66
2023/05/23 10:25:12;;;;;;;8.53;8.00;;;;;;;21.91;98.86;96730.59;5015201;28;20218;-69
2023/05/23 10:27:40;;;;;;;9.57;8.67;;;;;;;21.80;98.99;96738.69;5034100;28;20211;-68
2023/05/23 10:30:09;;;;;;;8.63;8.03;;;;;;;21.46;98.11;96736.41;5032913;28;20225;-69
2023/05/23 10:32:39;;;;;;;9.83;8.90;;;;;;;21.63;93.20;96738.88;4978674;28;21236;-69
2023/05/23 10:35:12;;;;;;;8.77;7.87;;;;;;;21.42;95.27;96735.34;5033156;28;20241;-69
2023/05/23 10:37:48;;;;;;;8.80;7.93;;;;;;;21.84;92.98;96728.19;5008454;28;20984;-68
2023/05/23 10:40:21;;;;;;;8.17;7.57;;;;;;;21.45;92.15;96728.63;5014958;28;20198;-67
2023/05/23 10:42:53;;;;;;;9.17;8.37;;;;;;;21.36;90.81;96723.72;5037224;28;20670;-68
2023/05/23 10:45:22;;;;;;;8.93;8.27;;;;;;;21.22;90.56;96734.22;5031313;28;20203;-67
2023/05/23 10:47:51;;;;;;;8.27;7.67;;;;;;;21.21;96.54;96729.06;5031460;28;20214;-66
2023/05/23 10:50:31;;;;;;;8.30;7.70;;;;;;;21.47;98.87;96723.78;4981400;28;21045;-67
2023/05/23 10:53:02;;;;;;;9.17;8.47;;;;;;;21.32;98.13;96732.63;5032986;28;20969;-68
2023/05/23 10:55:32;;;;;;;8.60;7.87;;;;;;;21.05;100.00;96723.63;4984458;28;20234;-67
2023/05/23 10:58:10;;;;;;;8.33;7.63;;;;;;;21.78;100.00;96734.63;5032018;28;20734;-68
2023/05/23 11:00:37;;;;;;;8.33;7.77;;;;;;;22.35;93.45;96727.38;5029660;28;20873;-67
2023/05/23 11:03:07;;;;;;;8.57;7.97;;;;;;;22.39;88.96;96730.31;5028245;28;20274;-67
2023/05/23 11:05:37;;;;;;;9.53;8.80;;;;;;;21.91;89.62;96720.63;4979779;28;20370;-70
2023/05/23 11:08:12;;;;;;;9.00;8.20;;;;;;;21.74;93.25;96739.75;5031033;28;20221;-68
2023/05/23 11:10:56;;;;;;;8.80;8.10;;;;;;;21.61;94.00;96740.25;5007596;28;20455;-67
2023/05/23 11:13:24;;;;;;;8.90;8.23;;;;;;;21.57;96.82;96733.75;5034790;28;20622;-67
2023/05/23 11:15:51;;;;;;;8.93;8.03;;;;;;;21.94;95.19;96727.34;5034839;28;21067;-68
2023/05/23 11:18:20;;;;;;;9.33;8.60;;;;;;;21.47;93.66;96729.16;5029529;28;20714;-66
2023/05/23 11:20:50;;;;;;;7.77;7.17;;;;;;;21.65;96.35;96706.31;4981051;28;20218;-70
2023/05/23 11:23:22;;;;;;;8.70;8.00;;;;;;;22.31;92.70;96728.19;5027921;28;20210;-68